Time;durP1;ratioP1;P1;durP2;ratioP2;P2;SDS_P1;SDS_P2;PMS_P1;PMS_P2;Temp;Humidity;BMP_temperature;BMP_pressure;BME280_temperature;BME280_humidity;BME280_pressure;Samples;Min_cycle;Max_cycle;Signal;HPM_P1;HPM_P2
2023/08/26 00:00:51;;;;;;;22.88;20.13;;;16.90;99.90;;;;;;4815928;29;20045;-80
2023/08/26 00:03:17;;;;;;;62.85;26.50;;;16.80;99.90;;;;;;4818129;29;20154;-80
2023/08/26 00:05:43;;;;;;;19.05;17.17;;;16.80;99.90;;;;;;4811755;29;21043;-80
2023/08/26 00:08:09;;;;;;;21.52;19.45;;;16.70;99.90;;;;;;4823786;29;20824;-80
2023/08/26 00:10:35;;;;;;;36.83;23.13;;;16.70;99.90;;;;;;4820504;29;20334;-80
2023/08/26 00:13:01;;;;;;;21.70;18.42;;;16.70;99.90;;;;;;4826064;29;20505;-80
2023/08/26 00:15:27;;;;;;;20.50;18.10;;;16.70;99.90;;;;;;4827358;29;20050;-80
2023/08/26 00:17:53;;;;;;;37.30;24.52;;;16.70;99.90;;;;;;4824634;29;20217;-80
2023/08/26 00:20:22;;;;;;;18.42;16.52;;;16.70;99.90;;;;;;4826051;29;20516;-80
2023/08/26 00:22:50;;;;;;;22.77;19.90;;;16.70;99.90;;;;;;4827141;29;20046;-80
2023/08/26 00:25:43;;;;;;;20.15;17.95;;;16.60;99.90;;;;;;4831789;29;20429;-80
2023/08/26 00:28:09;;;;;;;24.83;18.55;;;16.60;99.90;;;;;;4828730;29;20054;-80
2023/08/26 00:30:35;;;;;;;21.17;18.92;;;16.60;99.90;;;;;;4824029;29;20076;-80
2023/08/26 00:33:00;;;;;;;19.45;17.45;;;16.50;99.90;;;;;;4833170;29;20366;-80
2023/08/26 00:35:29;;;;;;;20.25;18.15;;;16.50;99.90;;;;;;4828491;29;20050;-80
2023/08/26 00:37:55;;;;;;;19.80;17.75;;;16.50;99.90;;;;;;4839537;29;20602;-80
2023/08/26 00:40:21;;;;;;;23.13;19.90;;;16.50;99.90;;;;;;4825989;29;20138;-80
2023/08/26 00:42:46;;;;;;;24.92;20.05;;;16.40;99.90;;;;;;4823812;29;20050;-80
2023/08/26 00:45:13;;;;;;;52.10;24.02;;;16.40;99.90;;;;;;4848047;29;20056;-79
2023/08/26 00:47:39;;;;;;;39.47;22.30;;;16.40;99.90;;;;;;4824233;29;21123;-80
2023/08/26 00:50:06;;;;;;;17.70;16.00;;;16.30;99.90;;;;;;4824466;29;20103;-80
2023/08/26 00:52:32;;;;;;;21.08;17.77;;;16.40;99.90;;;;;;4814975;29;20591;-79
2023/08/26 00:54:58;;;;;;;46.25;23.63;;;16.30;99.90;;;;;;4835437;29;20046;-79
2023/08/26 00:57:24;;;;;;;19.13;17.02;;;16.30;99.90;;;;;;4826986;29;20050;-79
2023/08/26 00:59:50;;;;;;;17.50;15.80;;;16.30;99.90;;;;;;4824786;29;20076;-79
2023/08/26 01:02:16;;;;;;;18.60;16.60;;;16.30;99.90;;;;;;4831594;29;20057;-79
2023/08/26 01:04:42;;;;;;;18.70;16.75;;;16.30;99.90;;;;;;4822427;29;20042;-79
2023/08/26 01:07:08;;;;;;;53.78;24.70;;;16.30;99.90;;;;;;4815946;29;20081;-80
2023/08/26 01:09:37;;;;;;;17.58;15.77;;;16.30;99.90;;;;;;4823861;29;20064;-80
2023/08/26 01:12:33;;;;;;;18.63;16.60;;;16.30;99.90;;;;;;4824931;29;20450;-80
2023/08/26 01:15:12;;;;;;;23.17;18.08;;;16.30;99.90;;;;;;4821534;29;20069;-80
2023/08/26 01:17:41;;;;;;;17.38;15.57;;;16.20;99.90;;;;;;4841274;29;20114;-80
2023/08/26 01:20:09;;;;;;;22.02;17.27;;;16.30;99.90;;;;;;4823226;29;20144;-80
2023/08/26 01:22:37;;;;;;;28.92;19.35;;;16.30;99.90;;;;;;4823403;29;20038;-80
2023/08/26 01:25:03;;;;;;;17.13;15.43;;;16.30;99.90;;;;;;4828258;29;20514;-80
2023/08/26 01:27:29;;;;;;;30.80;20.05;;;16.20;99.90;;;;;;4825888;29;20059;-80
2023/08/26 01:29:56;;;;;;;20.15;17.63;;;16.20;99.90;;;;;;4826349;29;20371;-79
2023/08/26 01:32:48;;;;;;;17.92;15.30;;;16.20;99.90;;;;;;4807707;29;20057;-79
2023/08/26 01:35:22;;;;;;;16.13;14.45;;;16.20;99.90;;;;;;4817325;29;20046;-77
2023/08/26 01:37:58;;;;;;;17.90;16.00;;;16.20;99.90;;;;;;4812734;29;20065;-79
2023/08/26 01:40:25;;;;;;;19.85;15.80;;;16.20;99.90;;;;;;4828434;29;20098;-79
2023/08/26 01:42:53;;;;;;;21.30;16.73;;;16.20;99.90;;;;;;4824594;29;20082;-79
2023/08/26 01:45:19;;;;;;;53.65;24.92;;;16.20;99.90;;;;;;4824757;29;20042;-79
2023/08/26 01:47:44;;;;;;;25.70;17.92;;;16.10;99.90;;;;;;4825245;29;20038;-79
2023/08/26 01:50:13;;;;;;;17.17;15.15;;;16.10;99.90;;;;;;4823722;29;20064;-79
2023/08/26 01:52:41;;;;;;;27.25;17.77;;;16.10;99.90;;;;;;4827321;29;20497;-79
2023/08/26 01:55:07;;;;;;;29.38;18.23;;;16.10;99.90;;;;;;4823775;29;20058;-79
2023/08/26 01:57:33;;;;;;;15.75;13.60;;;16.10;99.90;;;;;;4826121;29;20585;-79
2023/08/26 01:59:59;;;;;;;14.63;13.05;;;16.00;99.90;;;;;;4824717;29;20050;-79
2023/08/26 02:02:25;;;;;;;14.95;13.38;;;16.00;99.90;;;;;;4813454;29;20046;-79
2023/08/26 02:04:50;;;;;;;34.85;19.52;;;16.00;99.90;;;;;;4828570;29;20042;-79
2023/08/26 02:07:19;;;;;;;16.63;13.13;;;16.00;99.90;;;;;;4819815;29;20112;-79
2023/08/26 02:09:45;;;;;;;15.80;12.68;;;16.00;99.90;;;;;;4841495;29;20118;-79
2023/08/26 02:12:13;;;;;;;13.80;12.13;;;16.00;99.90;;;;;;4832620;29;20057;-79
2023/08/26 02:14:39;;;;;;;11.88;10.70;;;15.90;99.90;;;;;;4814165;29;20585;-79
2023/08/26 02:17:05;;;;;;;11.70;10.20;;;15.90;99.90;;;;;;4834634;29;20576;-79
2023/08/26 02:19:31;;;;;;;13.57;11.48;;;15.90;99.90;;;;;;4810860;29;20054;-80
2023/08/26 02:21:57;;;;;;;10.32;9.30;;;15.90;99.90;;;;;;4810269;29;20557;-79
2023/08/26 02:24:23;;;;;;;10.75;9.65;;;15.80;99.90;;;;;;4834170;29;20061;-80
2023/08/26 02:26:48;;;;;;;43.53;18.77;;;15.80;99.90;;;;;;4822744;29;20422;-80
2023/08/26 02:29:14;;;;;;;11.43;9.13;;;15.80;99.90;;;;;;4831476;29;20058;-79
2023/08/26 02:31:43;;;;;;;11.25;10.00;;;15.70;99.90;;;;;;4809245;29;20049;-79
2023/08/26 02:34:09;;;;;;;13.25;10.63;;;15.70;99.90;;;;;;4813068;29;20061;-79
2023/08/26 02:36:35;;;;;;;17.73;11.10;;;15.70;99.90;;;;;;4820069;29;20049;-79
2023/08/26 02:39:01;;;;;;;10.25;9.07;;;15.60;99.90;;;;;;4813529;29;20065;-79
2023/08/26 02:41:27;;;;;;;12.13;9.23;;;15.60;99.90;;;;;;4834452;29;20046;-79
2023/08/26 02:43:53;;;;;;;9.82;8.07;;;15.60;99.90;;;;;;4810203;29;20061;-79
2023/08/26 02:46:19;;;;;;;10.27;8.43;;;15.50;99.90;;;;;;4834229;29;20129;-79
2023/08/26 02:48:45;;;;;;;10.40;7.70;;;15.50;99.90;;;;;;4831290;29;20046;-79
2023/08/26 02:51:13;;;;;;;9.90;7.90;;;15.50;99.90;;;;;;4833028;29;20527;-79
2023/08/26 02:53:39;;;;;;;8.82;7.63;;;15.50;99.90;;;;;;4814669;29;20124;-79
2023/08/26 02:56:05;;;;;;;9.43;7.85;;;15.40;99.90;;;;;;4833384;29;20579;-79
2023/08/26 02:58:31;;;;;;;8.50;6.95;;;15.40;99.90;;;;;;4834370;29;20054;-79
2023/08/26 03:01:01;;;;;;;10.18;7.00;;;15.40;99.90;;;;;;4832841;29;20038;-79
2023/08/26 03:03:27;;;;;;;8.23;7.43;;;15.40;99.90;;;;;;4817006;29;20077;-79
2023/08/26 03:05:59;;;;;;;11.63;7.68;;;15.30;99.90;;;;;;4833774;29;20086;-79
2023/08/26 03:08:28;;;;;;;13.10;6.28;;;15.30;99.90;;;;;;4819202;29;20061;-79
2023/08/26 03:11:07;;;;;;;8.93;6.22;;;15.20;99.90;;;;;;4832483;29;20117;-79
2023/08/26 03:13:33;;;;;;;8.77;6.82;;;15.20;99.90;;;;;;4831206;29;20064;-79
2023/08/26 03:16:07;;;;;;;8.68;6.25;;;15.10;99.90;;;;;;4825517;29;20129;-79
2023/08/26 03:18:33;;;;;;;11.20;8.07;;;15.10;99.90;;;;;;4829362;29;20073;-79
2023/08/26 03:21:07;;;;;;;8.95;6.50;;;15.10;99.90;;;;;;4834058;29;20077;-79
2023/08/26 03:23:36;;;;;;;7.57;6.10;;;15.00;99.90;;;;;;4824398;29;20062;-79
2023/08/26 03:26:04;;;;;;;7.47;4.90;;;14.90;99.90;;;;;;4833662;29;20046;-79
2023/08/26 03:28:30;;;;;;;7.88;5.30;;;14.90;99.90;;;;;;4832696;29;20050;-80
2023/08/26 03:31:05;;;;;;;7.30;5.10;;;14.80;99.90;;;;;;4817000;29;20045;-79
2023/08/26 03:33:30;;;;;;;5.88;4.68;;;14.80;99.90;;;;;;4823911;29;20058;-79
2023/08/26 03:35:56;;;;;;;7.82;5.93;;;14.80;99.90;;;;;;4816208;29;20043;-79
2023/08/26 03:38:25;;;;;;;8.98;6.82;;;14.80;99.90;;;;;;4833765;29;20061;-79
2023/08/26 03:40:54;;;;;;;8.98;6.40;;;14.70;99.90;;;;;;4833495;29;20050;-79
2023/08/26 03:43:21;;;;;;;8.45;6.40;;;14.70;99.90;;;;;;4833331;29;20587;-79
2023/08/26 03:45:46;;;;;;;9.70;7.13;;;14.80;99.90;;;;;;4833325;29;20126;-79
2023/08/26 03:48:12;;;;;;;7.35;6.57;;;14.70;99.90;;;;;;4832567;29;20091;-79
2023/08/26 03:50:39;;;;;;;9.50;6.30;;;14.70;99.90;;;;;;4823552;29;20531;-79
2023/08/26 03:53:05;;;;;;;8.13;6.78;;;14.60;99.90;;;;;;4832697;29;20521;-79
2023/08/26 03:55:36;;;;;;;9.77;7.35;;;14.60;99.90;;;;;;4834565;29;20092;-79
2023/08/26 03:58:02;;;;;;;18.50;10.77;;;14.60;99.90;;;;;;4813613;29;20061;-79
2023/08/26 04:00:27;;;;;;;8.88;6.22;;;14.50;99.90;;;;;;4848041;29;20052;-79
2023/08/26 04:02:53;;;;;;;9.40;7.63;;;14.50;99.90;;;;;;4839628;29;20400;-79
2023/08/26 04:05:19;;;;;;;10.13;7.05;;;14.40;99.90;;;;;;4832225;29;20046;-79
2023/08/26 04:07:45;;;;;;;7.45;6.43;;;14.40;99.90;;;;;;4831156;29;20073;-79
2023/08/26 04:10:14;;;;;;;10.15;6.38;;;14.30;99.90;;;;;;4848617;29;20227;-79
2023/08/26 04:12:40;;;;;;;7.18;6.10;;;14.30;99.90;;;;;;4831017;29;20085;-79
2023/08/26 04:15:07;;;;;;;7.88;6.18;;;14.20;99.90;;;;;;4819435;29;20050;-79
2023/08/26 04:17:33;;;;;;;7.78;6.63;;;14.20;99.90;;;;;;4832666;29;20050;-79
2023/08/26 04:20:00;;;;;;;13.32;9.43;;;14.10;99.90;;;;;;4815739;29;20043;-79
2023/08/26 04:22:26;;;;;;;10.95;7.70;;;14.20;99.90;;;;;;4829830;29;20121;-79
2023/08/26 04:24:52;;;;;;;9.13;7.55;;;14.10;99.90;;;;;;4831616;29;20130;-79
2023/08/26 04:27:20;;;;;;;11.18;8.63;;;14.10;99.90;;;;;;4834358;29;20125;-79
2023/08/26 04:29:47;;;;;;;8.35;7.47;;;14.10;99.90;;;;;;4827893;29;20134;-79
2023/08/26 04:32:12;;;;;;;11.77;10.60;;;14.00;99.90;;;;;;4815248;29;20141;-79
2023/08/26 04:34:38;;;;;;;12.88;10.60;;;14.00;99.90;;;;;;4822622;29;20134;-78
2023/08/26 04:37:04;;;;;;;9.68;8.65;;;14.10;99.90;;;;;;4834875;29;20057;-79
2023/08/26 04:39:39;;;;;;;9.32;8.20;;;14.00;99.90;;;;;;4830339;29;20327;-79
2023/08/26 04:42:05;;;;;;;8.73;7.82;;;14.10;99.90;;;;;;4832714;29;20112;-79
2023/08/26 04:44:31;;;;;;;10.45;8.18;;;14.10;99.90;;;;;;4832278;29;20096;-79
2023/08/26 04:46:56;;;;;;;8.35;7.53;;;14.00;99.90;;;;;;4830592;29;20046;-79
2023/08/26 04:49:22;;;;;;;12.10;8.73;;;14.00;99.90;;;;;;4833479;29;20057;-79
2023/08/26 04:51:53;;;;;;;9.45;8.55;;;14.00;99.90;;;;;;4812495;29;20145;-79
2023/08/26 04:54:19;;;;;;;10.68;9.68;;;14.10;99.90;;;;;;4833506;29;20054;-79
2023/08/26 04:56:47;;;;;;;11.77;10.57;;;14.10;99.90;;;;;;4831552;29;20399;-79
2023/08/26 04:59:13;;;;;;;12.57;10.50;;;14.20;99.90;;;;;;4818796;29;20516;-79
2023/08/26 05:01:39;;;;;;;12.55;11.27;;;14.20;99.90;;;;;;4826765;29;20038;-79
2023/08/26 05:04:05;;;;;;;13.73;11.95;;;14.20;99.90;;;;;;4833264;29;20092;-79
2023/08/26 05:06:31;;;;;;;12.68;11.38;;;14.30;99.90;;;;;;4824458;29;20049;-79
2023/08/26 05:08:57;;;;;;;14.85;12.70;;;14.40;99.90;;;;;;4835542;29;20052;-79
2023/08/26 05:11:22;;;;;;;13.73;11.57;;;14.40;99.90;;;;;;4840857;29;20050;-79
2023/08/26 05:13:48;;;;;;;22.27;16.08;;;14.40;99.90;;;;;;4834273;29;20038;-79
2023/08/26 05:16:14;;;;;;;15.70;14.20;;;14.50;99.90;;;;;;4836355;29;20065;-79
2023/08/26 05:18:40;;;;;;;16.17;14.48;;;14.50;99.90;;;;;;4814814;29;20145;-79
2023/08/26 05:21:09;;;;;;;14.60;13.10;;;14.50;99.90;;;;;;4819085;29;20517;-79
2023/08/26 05:23:35;;;;;;;23.35;16.35;;;14.60;99.90;;;;;;4835089;29;20057;-80
2023/08/26 05:26:29;;;;;;;16.00;14.38;;;14.60;99.90;;;;;;4851746;29;20049;-79
2023/08/26 05:28:57;;;;;;;17.13;15.50;;;14.50;99.90;;;;;;4842811;29;20066;-79
2023/08/26 05:31:22;;;;;;;17.25;15.45;;;14.70;99.90;;;;;;4846251;29;20497;-79
2023/08/26 05:33:49;;;;;;;17.08;15.38;;;14.70;99.90;;;;;;4824096;29;20064;-79
2023/08/26 05:36:14;;;;;;;17.02;15.38;;;14.70;99.90;;;;;;4833956;29;20150;-79
2023/08/26 05:38:43;;;;;;;19.52;17.40;;;14.70;99.90;;;;;;4832019;29;20564;-79
2023/08/26 05:41:16;;;;;;;19.38;17.23;;;14.80;99.90;;;;;;4842913;29;20102;-79
2023/08/26 05:43:42;;;;;;;19.67;17.63;;;14.80;99.90;;;;;;4849180;29;20090;-79
2023/08/26 05:46:08;;;;;;;20.75;17.85;;;14.90;99.90;;;;;;4819877;29;20077;-79
2023/08/26 05:48:37;;;;;;;21.10;17.77;;;14.90;99.90;;;;;;4820675;29;20081;-79
2023/08/26 05:51:03;;;;;;;26.27;21.65;;;14.90;99.90;;;;;;4835792;29;20149;-80
2023/08/26 05:53:31;;;;;;;20.60;17.52;;;15.00;99.90;;;;;;4820383;29;20053;-79
2023/08/26 05:55:58;;;;;;;21.00;17.85;;;15.00;99.90;;;;;;4835906;29;20062;-79
2023/08/26 05:58:24;;;;;;;19.75;17.45;;;15.00;99.90;;;;;;4833365;29;20060;-79
2023/08/26 06:00:50;;;;;;;25.83;21.02;;;15.10;99.90;;;;;;4835382;29;20046;-79
2023/08/26 06:03:16;;;;;;;22.08;19.85;;;15.10;99.90;;;;;;4851095;29;20128;-79
2023/08/26 06:05:42;;;;;;;22.88;19.05;;;15.10;99.90;;;;;;4844138;29;20485;-79
2023/08/26 06:08:27;;;;;;;19.83;17.73;;;15.20;99.90;;;;;;5116766;27;20389;-79
2023/08/26 06:11:03;;;;;;;20.20;18.20;;;15.20;99.90;;;;;;5092443;28;20048;-80
2023/08/26 06:13:29;;;;;;;19.25;17.35;;;15.20;99.90;;;;;;5086386;28;20403;-79
2023/08/26 06:15:56;;;;;;;20.80;18.60;;;15.30;99.90;;;;;;5049275;28;20056;-79
2023/08/26 06:18:23;;;;;;;20.90;18.73;;;15.30;99.90;;;;;;5062360;28;20499;-80
2023/08/26 06:20:52;;;;;;;20.60;18.25;;;15.30;99.90;;;;;;5051389;28;20526;-79
2023/08/26 06:23:18;;;;;;;20.17;18.03;;;15.40;99.90;;;;;;5070606;28;20044;-80
2023/08/26 06:25:52;;;;;;;20.55;18.13;;;15.40;99.90;;;;;;5099940;28;20297;-80
2023/08/26 06:28:18;;;;;;;20.77;18.65;;;15.40;99.90;;;;;;5093669;28;20498;-79
2023/08/26 06:30:44;;;;;;;34.90;25.27;;;15.40;99.90;;;;;;5071375;28;20049;-79
2023/08/26 06:33:13;;;;;;;24.50;21.52;;;15.40;99.90;;;;;;5061644;28;20050;-80
2023/08/26 06:35:39;;;;;;;34.47;25.13;;;15.40;99.90;;;;;;5076004;28;20032;-79
2023/08/26 06:38:07;;;;;;;27.80;23.63;;;15.40;99.90;;;;;;5064767;28;20418;-79
2023/08/26 06:40:35;;;;;;;22.38;20.02;;;15.40;99.90;;;;;;5096773;28;20045;-79
2023/08/26 06:43:04;;;;;;;22.38;20.23;;;15.40;99.90;;;;;;5075676;28;20047;-79
2023/08/26 06:45:31;;;;;;;25.13;22.38;;;15.50;99.90;;;;;;5066632;28;20048;-79
2023/08/26 06:47:57;;;;;;;24.42;22.00;;;15.50;99.90;;;;;;5074008;28;20029;-79
2023/08/26 06:50:24;;;;;;;25.05;22.58;;;15.50;99.90;;;;;;5096684;28;20418;-79
2023/08/26 06:52:50;;;;;;;25.65;22.88;;;15.50;99.90;;;;;;5090279;28;20028;-79
2023/08/26 06:55:17;;;;;;;28.35;25.08;;;15.60;99.90;;;;;;5063277;28;20044;-80
2023/08/26 06:57:43;;;;;;;30.02;26.42;;;15.60;99.90;;;;;;5105496;28;20099;-79
2023/08/26 07:00:11;;;;;;;33.42;29.92;;;15.60;99.90;;;;;;5063816;28;20070;-81
2023/08/26 07:02:37;;;;;;;28.83;25.98;;;15.70;99.90;;;;;;5096444;28;20083;-81
2023/08/26 07:05:16;;;;;;;29.00;26.00;;;15.80;99.90;;;;;;5063764;28;20487;-81
2023/08/26 07:07:47;;;;;;;33.33;29.90;;;15.80;99.90;;;;;;5082702;28;20083;-80
2023/08/26 07:10:13;;;;;;;32.05;28.88;;;15.80;99.90;;;;;;5077029;28;20143;-80
2023/08/26 07:12:59;;;;;;;33.00;29.80;;;15.80;99.90;;;;;;5062503;28;20164;-81
2023/08/26 07:15:25;;;;;;;35.25;31.45;;;15.90;99.90;;;;;;5099619;28;20147;-81
2023/08/26 07:17:51;;;;;;;33.30;30.10;;;15.90;99.90;;;;;;5079090;28;20052;-81
2023/08/26 07:20:17;;;;;;;33.65;30.48;;;16.00;99.90;;;;;;5102093;27;20109;-82
2023/08/26 07:22:52;;;;;;;36.65;33.15;;;16.00;99.90;;;;;;5052555;28;20049;-81
2023/08/26 07:25:21;;;;;;;35.00;31.73;;;16.00;99.90;;;;;;5066949;28;20093;-81
2023/08/26 07:27:47;;;;;;;30.10;26.98;;;15.90;99.90;;;;;;5074937;28;20032;-82
2023/08/26 07:30:14;;;;;;;29.13;26.25;;;15.90;99.90;;;;;;5071866;28;20051;-82
2023/08/26 07:32:41;;;;;;;28.65;25.60;;;15.80;99.90;;;;;;5092703;28;20074;-82
2023/08/26 07:35:08;;;;;;;28.75;25.95;;;15.80;99.90;;;;;;5073070;28;20037;-82
2023/08/26 07:37:34;;;;;;;28.83;26.05;;;15.80;99.90;;;;;;5073643;28;20054;-82
2023/08/26 07:40:01;;;;;;;27.17;24.70;;;15.90;99.90;;;;;;5094039;27;20040;-81
2023/08/26 07:42:27;;;;;;;28.80;26.23;;;16.00;99.90;;;;;;5069071;28;20040;-82
2023/08/26 07:44:53;;;;;;;28.00;25.42;;;16.00;99.90;;;;;;5089380;28;20045;-82
2023/08/26 07:47:20;;;;;;;25.55;23.10;;;16.00;99.90;;;;;;5103864;27;20544;-83
2023/08/26 07:49:46;;;;;;;25.70;23.48;;;16.00;99.90;;;;;;5106754;27;20036;-82
2023/08/26 07:52:13;;;;;;;27.30;24.90;;;16.10;99.90;;;;;;5063115;28;20043;-82
2023/08/26 07:54:39;;;;;;;29.60;26.80;;;16.20;99.90;;;;;;5071673;28;20037;-82
2023/08/26 07:57:05;;;;;;;27.75;25.05;;;16.20;99.90;;;;;;5049509;28;20051;-82
2023/08/26 07:59:31;;;;;;;31.35;28.48;;;16.30;99.90;;;;;;5048771;28;20368;-82
2023/08/26 08:01:57;;;;;;;25.85;23.25;;;16.40;99.90;;;;;;5083121;28;20123;-82
2023/08/26 08:04:23;;;;;;;29.30;26.67;;;16.50;99.90;;;;;;5079445;28;20123;-83
2023/08/26 08:06:48;;;;;;;28.13;25.23;;;16.70;99.90;;;;;;5095572;27;20032;-83
2023/08/26 08:09:14;;;;;;;26.15;23.85;;;16.90;99.90;;;;;;5103984;27;20040;-83
2023/08/26 08:11:41;;;;;;;25.20;22.95;;;17.00;99.90;;;;;;5073891;28;20044;-83
2023/08/26 08:14:06;;;;;;;24.30;21.92;;;17.00;99.90;;;;;;5076854;28;20127;-83
2023/08/26 08:16:32;;;;;;;26.00;22.25;;;17.10;99.90;;;;;;5049426;28;20047;-84
2023/08/26 08:18:58;;;;;;;22.95;20.73;;;17.10;99.90;;;;;;5052084;28;20507;-84
2023/08/26 08:21:24;;;;;;;22.15;19.88;;;17.20;99.90;;;;;;5090490;28;20040;-83
2023/08/26 08:23:50;;;;;;;20.95;18.98;;;17.30;99.90;;;;;;5071162;28;20611;-84
2023/08/26 08:26:16;;;;;;;22.88;20.45;;;17.40;99.90;;;;;;5081872;28;20036;-83
2023/08/26 08:28:42;;;;;;;21.13;19.05;;;17.50;99.90;;;;;;5063890;28;20040;-85
2023/08/26 08:31:08;;;;;;;20.65;18.63;;;17.60;99.90;;;;;;5054826;28;20043;-81
2023/08/26 08:33:34;;;;;;;23.92;21.58;;;17.50;99.90;;;;;;5084935;28;20041;-82
2023/08/26 08:36:00;;;;;;;21.83;19.73;;;17.60;99.90;;;;;;5066719;28;20040;-81
2023/08/26 08:38:26;;;;;;;19.65;17.05;;;17.60;99.90;;;;;;5062273;28;20442;-81
2023/08/26 08:40:52;;;;;;;19.67;17.98;;;17.60;99.90;;;;;;5068247;28;20044;-81
2023/08/26 08:43:20;;;;;;;20.50;18.60;;;17.60;99.90;;;;;;5066060;28;20470;-82
2023/08/26 08:45:46;;;;;;;19.48;17.58;;;17.60;99.90;;;;;;5069017;28;20080;-81
2023/08/26 08:48:12;;;;;;;18.40;16.77;;;17.70;99.90;;;;;;5088859;28;20045;-81
2023/08/26 08:50:42;;;;;;;20.05;18.10;;;17.70;99.90;;;;;;5085709;28;20036;-81
2023/08/26 08:53:10;;;;;;;19.48;17.65;;;17.70;99.90;;;;;;5065625;28;20056;-82
2023/08/26 08:55:50;;;;;;;17.38;15.65;;;17.70;99.90;;;;;;5051126;28;20051;-81
2023/08/26 08:58:22;;;;;;;17.45;15.82;;;17.80;99.90;;;;;;5098421;27;20365;-81
2023/08/26 09:00:50;;;;;;;17.35;15.75;;;17.90;99.90;;;;;;5052295;28;20048;-82
2023/08/26 09:03:27;;;;;;;18.25;16.52;;;18.00;99.90;;;;;;5070481;28;20189;-82
2023/08/26 09:06:07;;;;;;;16.63;15.02;;;18.20;99.90;;;;;;5068468;28;20070;-82
2023/08/26 09:08:49;;;;;;;17.23;15.45;;;18.40;99.90;;;;;;5090676;27;20053;-82
2023/08/26 09:11:15;;;;;;;16.20;14.57;;;18.40;99.90;;;;;;5082819;28;20052;-82
2023/08/26 09:13:42;;;;;;;15.23;13.70;;;18.40;99.90;;;;;;5071588;28;20556;-83
2023/08/26 09:16:09;;;;;;;16.35;14.65;;;18.30;99.90;;;;;;5067900;28;20045;-83
2023/08/26 09:18:39;;;;;;;13.57;12.27;;;18.30;99.90;;;;;;5110856;27;20433;-83
2023/08/26 09:21:08;;;;;;;;;;;18.30;99.90;;;;;;5092321;28;20174;-83
2023/08/26 09:23:44;;;;;;;11.85;10.68;;;18.40;99.90;;;;;;5067038;28;19931;-83
2023/08/26 09:26:11;;;;;;;11.90;10.70;;;18.50;99.90;;;;;;5060980;28;20040;-84
2023/08/26 09:28:37;;;;;;;12.18;10.60;;;18.70;99.90;;;;;;5095064;27;20045;-84
2023/08/26 09:31:07;;;;;;;13.90;11.93;;;18.90;99.90;;;;;;5052654;28;20123;-84
2023/08/26 09:33:33;;;;;;;;;;;19.00;99.90;;;;;;5067645;28;20040;-83
2023/08/26 09:35:59;;;;;;;11.73;10.43;;;18.90;99.90;;;;;;5085874;28;19924;-83
2023/08/26 09:38:26;;;;;;;12.63;10.73;;;18.80;99.90;;;;;;5062467;28;20180;-83
2023/08/26 09:41:00;;;;;;;11.43;10.32;;;18.70;99.90;;;;;;5073631;28;20045;-84
2023/08/26 09:43:26;;;;;;;11.65;9.05;;;18.70;99.90;;;;;;5081087;28;20044;-84
2023/08/26 09:45:58;;;;;;;11.38;8.77;;;18.50;99.90;;;;;;5084537;28;20036;-83
2023/08/26 09:48:24;;;;;;;13.70;10.50;;;18.40;99.90;;;;;;5054282;28;20051;-83
2023/08/26 09:50:50;;;;;;;13.73;10.32;;;18.40;99.90;;;;;;5052861;28;20032;-83
2023/08/26 09:53:33;;;;;;;10.30;9.13;;;18.30;99.90;;;;;;5066396;28;20054;-83
2023/08/26 09:56:02;;;;;;;11.82;9.02;;;18.30;99.90;;;;;;5060284;28;20093;-83
2023/08/26 09:58:33;;;;;;;11.45;8.80;;;18.30;99.90;;;;;;5078207;28;20075;-83
2023/08/26 10:01:04;;;;;;;10.77;8.13;;;18.30;99.90;;;;;;5053529;28;20068;-83
2023/08/26 10:03:31;;;;;;;14.98;9.32;;;18.40;99.90;;;;;;5055196;28;20042;-84
2023/08/26 10:06:00;;;;;;;10.30;7.97;;;18.70;99.90;;;;;;5058381;28;20051;-85
2023/08/26 10:08:34;;;;;;;10.02;6.05;;;19.00;99.90;;;;;;5071400;28;20114;-84
2023/08/26 10:11:19;;;;;;;9.88;4.90;;;19.20;99.90;;;;;;5059367;28;20055;-83
2023/08/26 10:13:50;;;;;;;7.22;4.30;;;19.30;99.90;;;;;;5047741;28;20067;-84
2023/08/26 10:16:18;;;;;;;9.27;4.13;;;19.40;99.90;;;;;;5066595;28;20489;-84
2023/08/26 10:18:48;;;;;;;8.73;4.55;;;19.60;99.90;;;;;;5068613;28;20044;-84
2023/08/26 10:21:14;;;;;;;8.18;4.35;;;19.60;99.90;;;;;;5058430;28;20057;-84
2023/08/26 10:23:43;;;;;;;8.30;3.60;;;19.60;99.90;;;;;;5095269;28;20039;-85
2023/08/26 10:26:10;;;;;;;8.02;3.90;;;19.70;99.90;;;;;;5050998;28;20102;-84
2023/08/26 10:28:37;;;;;;;8.85;4.45;;;19.90;99.90;;;;;;5044808;28;20052;-84
2023/08/26 10:31:12;;;;;;;6.05;2.92;;;20.10;99.90;;;;;;5054866;28;20052;-84
2023/08/26 10:34:01;;;;;;;6.20;2.95;;;20.30;99.90;;;;;;5069272;28;20044;-84
2023/08/26 10:36:28;;;;;;;7.07;3.17;;;20.50;99.90;;;;;;5047576;28;20040;-84
2023/08/26 10:38:58;;;;;;;7.43;4.05;;;20.60;99.90;;;;;;5076153;28;20041;-85
2023/08/26 10:41:25;;;;;;;6.97;3.53;;;20.80;99.90;;;;;;5082330;28;20049;-85
2023/08/26 10:43:56;;;;;;;8.48;4.35;;;20.90;99.90;;;;;;5064563;28;20063;-86
2023/08/26 10:46:37;;;;;;;7.75;3.13;;;20.80;99.90;;;;;;5063645;28;20076;-85
2023/08/26 10:49:03;;;;;;;7.13;2.88;;;20.80;99.90;;;;;;5086609;28;20105;-86
2023/08/26 10:51:36;;;;;;;8.52;2.72;;;20.90;99.90;;;;;;5048717;28;20893;-85
2023/08/26 10:54:06;;;;;;;6.70;3.20;;;21.00;99.90;;;;;;5067027;28;20126;-85
2023/08/26 10:56:33;;;;;;;5.68;2.65;;;21.20;99.90;;;;;;5069403;28;20555;-86
2023/08/26 10:59:06;;;;;;;7.47;2.70;;;21.40;99.90;;;;;;5066485;28;20051;-85
2023/08/26 11:01:36;;;;;;;5.93;2.00;;;21.40;99.90;;;;;;5081897;28;20087;-85
2023/08/26 11:04:04;;;;;;;4.10;2.22;;;21.40;99.90;;;;;;5070768;28;20032;-85
2023/08/26 11:06:38;;;;;;;7.45;2.83;;;21.40;99.90;;;;;;5051424;28;20045;-84
2023/08/26 11:09:07;;;;;;;5.80;2.75;;;21.30;99.90;;;;;;5062840;28;20060;-85
2023/08/26 11:11:33;;;;;;;7.40;2.50;;;21.30;99.90;;;;;;5091170;28;20059;-85
2023/08/26 11:13:59;;;;;;;7.32;2.42;;;21.30;99.90;;;;;;5061426;28;20793;-85
2023/08/26 11:16:25;;;;;;;5.22;2.25;;;21.30;99.90;;;;;;5079877;28;20043;-85
2023/08/26 11:18:52;;;;;;;4.05;2.42;;;21.30;99.90;;;;;;5065417;28;20066;-84
2023/08/26 11:21:18;;;;;;;4.72;2.03;;;21.40;99.90;;;;;;5052816;28;20750;-83
2023/08/26 11:23:47;;;;;;;4.95;2.15;;;21.50;99.90;;;;;;5060042;28;20040;-85
2023/08/26 11:26:20;;;;;;;4.93;2.23;;;21.50;99.90;;;;;;5068708;28;20132;-84
2023/08/26 11:28:48;;;;;;;5.53;2.47;;;21.50;99.90;;;;;;5061824;28;20137;-84
2023/08/26 11:31:15;;;;;;;7.60;2.33;;;21.60;99.90;;;;;;5071088;28;20059;-85
2023/08/26 11:33:44;;;;;;;4.60;2.58;;;21.60;99.90;;;;;;5063704;28;20036;-84
2023/08/26 11:36:10;;;;;;;6.80;2.17;;;21.60;99.90;;;;;;5063596;28;20040;-84
2023/08/26 11:38:37;;;;;;;4.82;2.75;;;21.60;99.90;;;;;;5061980;28;20060;-85
2023/08/26 11:41:07;;;;;;;4.80;2.50;;;21.40;99.90;;;;;;5068939;28;20033;-85
2023/08/26 11:43:35;;;;;;;6.32;2.65;;;21.20;99.90;;;;;;5061622;28;20589;-84
2023/08/26 11:46:01;;;;;;;3.85;2.90;;;21.10;99.90;;;;;;5063525;28;20180;-83
2023/08/26 11:48:27;;;;;;;5.57;3.33;;;21.20;99.90;;;;;;5057754;28;20086;-84
2023/08/26 11:51:05;;;;;;;4.82;2.92;;;21.20;99.90;;;;;;5065572;28;20071;-85
2023/08/26 11:53:31;;;;;;;5.60;2.80;;;21.30;99.90;;;;;;5105614;27;20424;-83
2023/08/26 11:55:57;;;;;;;4.28;2.55;;;21.30;99.90;;;;;;5089222;28;20033;-83
2023/08/26 11:58:23;;;;;;;6.20;2.70;;;21.10;99.90;;;;;;5049866;28;20037;-84
2023/08/26 12:00:55;;;;;;;5.22;2.50;;;21.00;99.90;;;;;;5057228;28;20347;-84
2023/08/26 12:03:27;;;;;;;4.43;3.10;;;21.00;99.90;;;;;;5097370;27;20055;-85
2023/08/26 12:06:13;;;;;;;4.03;2.75;;;21.30;99.90;;;;;;5092650;28;20075;-84
2023/08/26 12:08:57;;;;;;;5.18;3.67;;;21.50;99.90;;;;;;5065893;28;20052;-86
2023/08/26 12:11:25;;;;;;;4.10;2.88;;;21.80;99.90;;;;;;5051378;28;20044;-82
2023/08/26 12:14:09;;;;;;;3.38;2.45;;;22.00;99.90;;;;;;5083969;28;20383;-83
2023/08/26 12:16:38;;;;;;;3.83;2.70;;;22.20;99.90;;;;;;5053656;28;20344;-84
2023/08/26 12:19:16;;;;;;;4.35;2.50;;;22.20;99.90;;;;;;5068231;28;20624;-84
2023/08/26 12:21:42;;;;;;;4.15;2.75;;;22.20;99.90;;;;;;5063372;28;20098;-85
2023/08/26 12:24:11;;;;;;;3.38;2.60;;;22.20;99.90;;;;;;5061810;28;20368;-85
2023/08/26 12:26:38;;;;;;;3.30;2.60;;;22.30;99.90;;;;;;5080236;28;20110;-84
2023/08/26 12:29:07;;;;;;;4.68;2.97;;;22.30;99.90;;;;;;5040694;28;20545;-84
2023/08/26 12:31:34;;;;;;;4.95;3.58;;;22.30;99.90;;;;;;5079574;28;20399;-86
2023/08/26 12:34:02;;;;;;;4.47;3.35;;;22.30;99.90;;;;;;5072926;28;20913;-82
2023/08/26 12:36:28;;;;;;;5.05;2.90;;;22.20;99.90;;;;;;5091078;28;20491;-82
2023/08/26 12:38:54;;;;;;;4.57;3.22;;;22.10;99.90;;;;;;5045518;28;20075;-82
2023/08/26 12:41:20;;;;;;;4.07;2.28;;;22.10;99.90;;;;;;5077226;28;20055;-82